sensor_id;sensor_type;location;lat;lon;timestamp;P1;durP1;ratioP1;P2;durP2;ratioP2
52186;SDS011;38161;53.020;6.598;2022-09-27T00:01:06;6.25;;;1.08;;
52186;SDS011;38161;53.020;6.598;2022-09-27T00:03:34;4.88;;;0.90;;
52186;SDS011;38161;53.020;6.598;2022-09-27T00:06:05;4.38;;;0.98;;
52186;SDS011;38161;53.020;6.598;2022-09-27T00:11:07;3.38;;;0.82;;
52186;SDS011;38161;53.020;6.598;2022-09-27T00:13:39;3.45;;;0.70;;
52186;SDS011;38161;53.020;6.598;2022-09-27T00:16:05;7.63;;;1.05;;
52186;SDS011;38161;53.020;6.598;2022-09-27T00:18:31;3.25;;;0.77;;
52186;SDS011;38161;53.020;6.598;2022-09-27T00:21:04;2.67;;;0.70;;
52186;SDS011;38161;53.020;6.598;2022-09-27T00:23:34;6.43;;;1.02;;
52186;SDS011;38161;53.020;6.598;2022-09-27T00:26:00;6.38;;;0.80;;
52186;SDS011;38161;53.020;6.598;2022-09-27T00:28:26;5.93;;;1.30;;
52186;SDS011;38161;53.020;6.598;2022-09-27T00:30:52;1.23;;;0.50;;
52186;SDS011;38161;53.020;6.598;2022-09-27T00:33:18;2.80;;;0.85;;
52186;SDS011;38161;53.020;6.598;2022-09-27T00:35:44;3.60;;;0.93;;
52186;SDS011;38161;53.020;6.598;2022-09-27T00:38:10;4.17;;;0.63;;
52186;SDS011;38161;53.020;6.598;2022-09-27T00:40:37;4.00;;;0.90;;
52186;SDS011;38161;53.020;6.598;2022-09-27T00:43:07;2.50;;;0.80;;
52186;SDS011;38161;53.020;6.598;2022-09-27T00:45:57;3.92;;;0.60;;
52186;SDS011;38161;53.020;6.598;2022-09-27T00:48:28;3.78;;;0.75;;
52186;SDS011;38161;53.020;6.598;2022-09-27T00:50:58;2.15;;;0.65;;
52186;SDS011;38161;53.020;6.598;2022-09-27T00:53:28;2.83;;;0.63;;
52186;SDS011;38161;53.020;6.598;2022-09-27T00:56:02;6.07;;;0.82;;
52186;SDS011;38161;53.020;6.598;2022-09-27T00:58:34;4.45;;;0.70;;
52186;SDS011;38161;53.020;6.598;2022-09-27T01:01:04;5.65;;;0.77;;
52186;SDS011;38161;53.020;6.598;2022-09-27T01:06:18;1.80;;;0.50;;
52186;SDS011;38161;53.020;6.598;2022-09-27T01:08:46;4.10;;;0.90;;
52186;SDS011;38161;53.020;6.598;2022-09-27T01:11:13;4.72;;;0.80;;
52186;SDS011;38161;53.020;6.598;2022-09-27T01:17:21;4.60;;;0.80;;
52186;SDS011;38161;53.020;6.598;2022-09-27T01:20:06;4.63;;;0.85;;
52186;SDS011;38161;53.020;6.598;2022-09-27T01:28:18;2.53;;;0.50;;
52186;SDS011;38161;53.020;6.598;2022-09-27T01:30:58;3.20;;;0.75;;
52186;SDS011;38161;53.020;6.598;2022-09-27T01:36:44;5.70;;;0.70;;
52186;SDS011;38161;53.020;6.598;2022-09-27T01:40:05;4.47;;;0.63;;
52186;SDS011;38161;53.020;6.598;2022-09-27T01:45:21;2.05;;;0.70;;
52186;SDS011;38161;53.020;6.598;2022-09-27T01:47:58;3.50;;;0.50;;
52186;SDS011;38161;53.020;6.598;2022-09-27T01:50:40;4.95;;;0.90;;
52186;SDS011;38161;53.020;6.598;2022-09-27T01:53:16;2.20;;;0.50;;
52186;SDS011;38161;53.020;6.598;2022-09-27T01:55:45;4.95;;;0.90;;
52186;SDS011;38161;53.020;6.598;2022-09-27T01:58:30;2.95;;;0.65;;
52186;SDS011;38161;53.020;6.598;2022-09-27T02:01:05;4.00;;;0.63;;
52186;SDS011;38161;53.020;6.598;2022-09-27T02:03:36;1.85;;;0.43;;
52186;SDS011;38161;53.020;6.598;2022-09-27T02:06:08;6.05;;;0.90;;
52186;SDS011;38161;53.020;6.598;2022-09-27T02:08:40;5.43;;;0.60;;
52186;SDS011;38161;53.020;6.598;2022-09-27T02:11:11;5.13;;;0.93;;
52186;SDS011;38161;53.020;6.598;2022-09-27T02:13:54;1.55;;;0.50;;
52186;SDS011;38161;53.020;6.598;2022-09-27T02:16:36;4.45;;;0.80;;
52186;SDS011;38161;53.020;6.598;2022-09-27T02:19:15;3.17;;;0.50;;
52186;SDS011;38161;53.020;6.598;2022-09-27T02:27:24;7.72;;;1.00;;
52186;SDS011;38161;53.020;6.598;2022-09-27T02:32:30;2.60;;;0.57;;
52186;SDS011;38161;53.020;6.598;2022-09-27T02:34:58;2.15;;;0.55;;
52186;SDS011;38161;53.020;6.598;2022-09-27T02:37:26;4.22;;;0.70;;
52186;SDS011;38161;53.020;6.598;2022-09-27T02:39:52;4.73;;;0.60;;
52186;SDS011;38161;53.020;6.598;2022-09-27T02:42:18;5.07;;;0.60;;
52186;SDS011;38161;53.020;6.598;2022-09-27T02:44:43;4.72;;;0.60;;
52186;SDS011;38161;53.020;6.598;2022-09-27T02:47:20;6.07;;;1.25;;
52186;SDS011;38161;53.020;6.598;2022-09-27T02:55:51;4.53;;;0.70;;
52186;SDS011;38161;53.020;6.598;2022-09-27T03:01:09;5.10;;;0.73;;
52186;SDS011;38161;53.020;6.598;2022-09-27T03:04:19;5.15;;;0.60;;
52186;SDS011;38161;53.020;6.598;2022-09-27T03:06:51;2.80;;;0.90;;
52186;SDS011;38161;53.020;6.598;2022-09-27T03:09:21;4.72;;;0.55;;
52186;SDS011;38161;53.020;6.598;2022-09-27T03:11:48;4.45;;;1.10;;
52186;SDS011;38161;53.020;6.598;2022-09-27T03:14:15;3.13;;;0.70;;
52186;SDS011;38161;53.020;6.598;2022-09-27T03:16:41;4.35;;;0.47;;
52186;SDS011;38161;53.020;6.598;2022-09-27T03:19:07;2.47;;;0.50;;
52186;SDS011;38161;53.020;6.598;2022-09-27T03:21:33;3.88;;;0.70;;
52186;SDS011;38161;53.020;6.598;2022-09-27T03:24:00;4.05;;;0.50;;
52186;SDS011;38161;53.020;6.598;2022-09-27T03:28:52;2.05;;;0.32;;
52186;SDS011;38161;53.020;6.598;2022-09-27T03:31:18;1.38;;;0.45;;
52186;SDS011;38161;53.020;6.598;2022-09-27T03:33:44;1.55;;;0.40;;
52186;SDS011;38161;53.020;6.598;2022-09-27T03:36:09;1.00;;;0.40;;
52186;SDS011;38161;53.020;6.598;2022-09-27T03:38:36;2.08;;;0.73;;
52186;SDS011;38161;53.020;6.598;2022-09-27T03:41:02;4.25;;;0.40;;
52186;SDS011;38161;53.020;6.598;2022-09-27T03:43:28;1.77;;;0.50;;
52186;SDS011;38161;53.020;6.598;2022-09-27T03:45:53;3.03;;;0.73;;
52186;SDS011;38161;53.020;6.598;2022-09-27T03:48:19;3.37;;;0.70;;
52186;SDS011;38161;53.020;6.598;2022-09-27T03:50:45;4.83;;;1.13;;
52186;SDS011;38161;53.020;6.598;2022-09-27T03:53:10;3.97;;;0.80;;
52186;SDS011;38161;53.020;6.598;2022-09-27T03:55:36;2.53;;;0.63;;
52186;SDS011;38161;53.020;6.598;2022-09-27T03:58:02;1.80;;;0.40;;
52186;SDS011;38161;53.020;6.598;2022-09-27T04:00:27;2.60;;;0.63;;
52186;SDS011;38161;53.020;6.598;2022-09-27T04:02:56;1.50;;;0.40;;
52186;SDS011;38161;53.020;6.598;2022-09-27T04:05:25;3.60;;;0.60;;
52186;SDS011;38161;53.020;6.598;2022-09-27T04:07:52;5.50;;;0.77;;
52186;SDS011;38161;53.020;6.598;2022-09-27T04:10:19;1.70;;;0.40;;
52186;SDS011;38161;53.020;6.598;2022-09-27T04:12:45;4.82;;;0.77;;
52186;SDS011;38161;53.020;6.598;2022-09-27T04:15:11;2.00;;;0.55;;
52186;SDS011;38161;53.020;6.598;2022-09-27T04:17:39;2.35;;;0.47;;
52186;SDS011;38161;53.020;6.598;2022-09-27T04:20:06;4.68;;;0.50;;
52186;SDS011;38161;53.020;6.598;2022-09-27T04:24:58;3.38;;;0.90;;
52186;SDS011;38161;53.020;6.598;2022-09-27T04:27:24;2.45;;;0.70;;
52186;SDS011;38161;53.020;6.598;2022-09-27T04:29:50;5.13;;;0.80;;
52186;SDS011;38161;53.020;6.598;2022-09-27T04:32:16;7.47;;;1.00;;
52186;SDS011;38161;53.020;6.598;2022-09-27T04:34:41;2.03;;;0.50;;
52186;SDS011;38161;53.020;6.598;2022-09-27T04:37:26;3.40;;;0.60;;
52186;SDS011;38161;53.020;6.598;2022-09-27T04:39:52;5.72;;;0.85;;
52186;SDS011;38161;53.020;6.598;2022-09-27T04:42:17;5.30;;;1.20;;
52186;SDS011;38161;53.020;6.598;2022-09-27T04:44:43;4.90;;;0.80;;
52186;SDS011;38161;53.020;6.598;2022-09-27T04:47:09;4.30;;;0.50;;
52186;SDS011;38161;53.020;6.598;2022-09-27T04:49:35;2.23;;;0.60;;
52186;SDS011;38161;53.020;6.598;2022-09-27T04:52:02;2.80;;;0.60;;
52186;SDS011;38161;53.020;6.598;2022-09-27T04:54:27;3.30;;;0.60;;
52186;SDS011;38161;53.020;6.598;2022-09-27T04:56:54;4.15;;;1.00;;
52186;SDS011;38161;53.020;6.598;2022-09-27T04:59:19;4.20;;;0.53;;
52186;SDS011;38161;53.020;6.598;2022-09-27T05:01:45;3.30;;;0.53;;
52186;SDS011;38161;53.020;6.598;2022-09-27T05:04:11;2.50;;;0.60;;
52186;SDS011;38161;53.020;6.598;2022-09-27T05:06:37;3.00;;;0.70;;
52186;SDS011;38161;53.020;6.598;2022-09-27T05:09:02;2.03;;;0.63;;
52186;SDS011;38161;53.020;6.598;2022-09-27T05:11:28;4.47;;;0.50;;
52186;SDS011;38161;53.020;6.598;2022-09-27T05:13:54;1.57;;;0.40;;
52186;SDS011;38161;53.020;6.598;2022-09-27T05:16:19;2.67;;;0.57;;
52186;SDS011;38161;53.020;6.598;2022-09-27T05:18:45;3.63;;;0.90;;
52186;SDS011;38161;53.020;6.598;2022-09-27T05:21:11;1.57;;;0.60;;
52186;SDS011;38161;53.020;6.598;2022-09-27T05:23:37;4.30;;;0.60;;
52186;SDS011;38161;53.020;6.598;2022-09-27T05:26:04;2.72;;;0.73;;
52186;SDS011;38161;53.020;6.598;2022-09-27T05:28:30;3.90;;;0.68;;
52186;SDS011;38161;53.020;6.598;2022-09-27T05:30:56;3.93;;;0.70;;
52186;SDS011;38161;53.020;6.598;2022-09-27T05:33:22;2.80;;;0.50;;
52186;SDS011;38161;53.020;6.598;2022-09-27T05:35:55;2.58;;;0.52;;
52186;SDS011;38161;53.020;6.598;2022-09-27T05:38:22;1.58;;;0.70;;
52186;SDS011;38161;53.020;6.598;2022-09-27T05:40:48;2.60;;;0.60;;
52186;SDS011;38161;53.020;6.598;2022-09-27T05:43:16;3.38;;;0.65;;
52186;SDS011;38161;53.020;6.598;2022-09-27T05:45:42;7.20;;;0.70;;
52186;SDS011;38161;53.020;6.598;2022-09-27T05:48:08;3.05;;;0.65;;
52186;SDS011;38161;53.020;6.598;2022-09-27T05:50:36;2.83;;;0.60;;
52186;SDS011;38161;53.020;6.598;2022-09-27T05:53:02;1.77;;;0.60;;
52186;SDS011;38161;53.020;6.598;2022-09-27T05:55:28;1.60;;;0.55;;
52186;SDS011;38161;53.020;6.598;2022-09-27T05:57:55;6.70;;;0.60;;
52186;SDS011;38161;53.020;6.598;2022-09-27T06:00:28;1.60;;;0.60;;
52186;SDS011;38161;53.020;6.598;2022-09-27T06:02:59;2.42;;;0.70;;
52186;SDS011;38161;53.020;6.598;2022-09-27T06:05:27;2.13;;;0.73;;
52186;SDS011;38161;53.020;6.598;2022-09-27T06:07:58;2.08;;;0.93;;
52186;SDS011;38161;53.020;6.598;2022-09-27T06:10:25;3.42;;;0.88;;
52186;SDS011;38161;53.020;6.598;2022-09-27T06:12:52;6.07;;;1.20;;
52186;SDS011;38161;53.020;6.598;2022-09-27T06:15:18;3.83;;;0.98;;
52186;SDS011;38161;53.020;6.598;2022-09-27T06:17:43;2.70;;;1.00;;
52186;SDS011;38161;53.020;6.598;2022-09-27T06:20:09;3.23;;;0.83;;
52186;SDS011;38161;53.020;6.598;2022-09-27T06:22:35;1.87;;;0.77;;
52186;SDS011;38161;53.020;6.598;2022-09-27T06:25:01;2.03;;;0.70;;
52186;SDS011;38161;53.020;6.598;2022-09-27T06:27:31;2.28;;;0.75;;
52186;SDS011;38161;53.020;6.598;2022-09-27T06:29:57;6.25;;;0.88;;
52186;SDS011;38161;53.020;6.598;2022-09-27T06:32:23;3.27;;;0.53;;
52186;SDS011;38161;53.020;6.598;2022-09-27T06:34:48;3.37;;;1.00;;
52186;SDS011;38161;53.020;6.598;2022-09-27T06:37:14;3.27;;;0.90;;
52186;SDS011;38161;53.020;6.598;2022-09-27T06:39:40;3.43;;;0.83;;
52186;SDS011;38161;53.020;6.598;2022-09-27T06:42:06;1.48;;;0.52;;
52186;SDS011;38161;53.020;6.598;2022-09-27T06:44:32;5.13;;;1.08;;
52186;SDS011;38161;53.020;6.598;2022-09-27T06:49:24;4.25;;;0.90;;
52186;SDS011;38161;53.020;6.598;2022-09-27T06:51:50;5.40;;;1.80;;
52186;SDS011;38161;53.020;6.598;2022-09-27T06:54:16;1.20;;;0.70;;
52186;SDS011;38161;53.020;6.598;2022-09-27T06:56:43;1.77;;;0.93;;
52186;SDS011;38161;53.020;6.598;2022-09-27T06:59:11;5.72;;;1.10;;
52186;SDS011;38161;53.020;6.598;2022-09-27T07:01:55;3.13;;;0.55;;
52186;SDS011;38161;53.020;6.598;2022-09-27T07:04:21;4.97;;;0.90;;
52186;SDS011;38161;53.020;6.598;2022-09-27T07:06:47;3.80;;;0.70;;
52186;SDS011;38161;53.020;6.598;2022-09-27T07:09:12;4.23;;;0.90;;
52186;SDS011;38161;53.020;6.598;2022-09-27T07:11:38;3.63;;;0.77;;
52186;SDS011;38161;53.020;6.598;2022-09-27T07:14:06;4.85;;;1.05;;
52186;SDS011;38161;53.020;6.598;2022-09-27T07:16:32;3.13;;;0.80;;
52186;SDS011;38161;53.020;6.598;2022-09-27T07:21:24;3.90;;;0.70;;
52186;SDS011;38161;53.020;6.598;2022-09-27T07:23:50;4.30;;;0.80;;
52186;SDS011;38161;53.020;6.598;2022-09-27T07:26:16;4.78;;;0.98;;
52186;SDS011;38161;53.020;6.598;2022-09-27T07:28:42;4.80;;;1.10;;
52186;SDS011;38161;53.020;6.598;2022-09-27T07:31:09;3.58;;;0.60;;
52186;SDS011;38161;53.020;6.598;2022-09-27T07:33:38;3.10;;;1.05;;
52186;SDS011;38161;53.020;6.598;2022-09-27T07:36:07;4.20;;;0.73;;
52186;SDS011;38161;53.020;6.598;2022-09-27T07:38:34;3.05;;;0.80;;
52186;SDS011;38161;53.020;6.598;2022-09-27T07:41:07;5.18;;;0.77;;
52186;SDS011;38161;53.020;6.598;2022-09-27T07:43:34;6.07;;;1.00;;
52186;SDS011;38161;53.020;6.598;2022-09-27T07:46:00;2.20;;;0.63;;
52186;SDS011;38161;53.020;6.598;2022-09-27T07:48:26;3.65;;;0.90;;
52186;SDS011;38161;53.020;6.598;2022-09-27T07:50:52;3.00;;;1.17;;
52186;SDS011;38161;53.020;6.598;2022-09-27T07:53:18;5.20;;;1.20;;
52186;SDS011;38161;53.020;6.598;2022-09-27T07:55:48;1.60;;;0.60;;
52186;SDS011;38161;53.020;6.598;2022-09-27T07:58:16;9.27;;;1.00;;
52186;SDS011;38161;53.020;6.598;2022-09-27T08:00:41;2.27;;;0.90;;
52186;SDS011;38161;53.020;6.598;2022-09-27T08:03:09;11.13;;;1.03;;
52186;SDS011;38161;53.020;6.598;2022-09-27T08:05:38;1.77;;;0.90;;
52186;SDS011;38161;53.020;6.598;2022-09-27T08:08:04;3.10;;;0.97;;
52186;SDS011;38161;53.020;6.598;2022-09-27T08:10:30;1.88;;;0.60;;
52186;SDS011;38161;53.020;6.598;2022-09-27T08:12:58;3.08;;;0.55;;
52186;SDS011;38161;53.020;6.598;2022-09-27T08:15:25;2.40;;;0.40;;
52186;SDS011;38161;53.020;6.598;2022-09-27T08:17:52;2.83;;;0.93;;
52186;SDS011;38161;53.020;6.598;2022-09-27T08:20:18;1.58;;;0.50;;
52186;SDS011;38161;53.020;6.598;2022-09-27T08:22:44;2.13;;;0.30;;
52186;SDS011;38161;53.020;6.598;2022-09-27T08:25:10;0.80;;;0.37;;
52186;SDS011;38161;53.020;6.598;2022-09-27T08:27:35;2.15;;;0.50;;
52186;SDS011;38161;53.020;6.598;2022-09-27T08:30:01;0.77;;;0.25;;
52186;SDS011;38161;53.020;6.598;2022-09-27T08:32:28;2.45;;;0.47;;
52186;SDS011;38161;53.020;6.598;2022-09-27T08:37:20;1.08;;;0.30;;
52186;SDS011;38161;53.020;6.598;2022-09-27T08:39:46;1.55;;;0.45;;
52186;SDS011;38161;53.020;6.598;2022-09-27T08:49:54;2.45;;;0.40;;
52186;SDS011;38161;53.020;6.598;2022-09-27T08:52:38;1.73;;;0.43;;
52186;SDS011;38161;53.020;6.598;2022-09-27T08:58:01;1.40;;;0.30;;
52186;SDS011;38161;53.020;6.598;2022-09-27T09:00:36;1.35;;;0.40;;
52186;SDS011;38161;53.020;6.598;2022-09-27T09:03:03;1.60;;;0.60;;
52186;SDS011;38161;53.020;6.598;2022-09-27T09:05:29;1.83;;;0.60;;
52186;SDS011;38161;53.020;6.598;2022-09-27T09:17:08;2.83;;;0.70;;
52186;SDS011;38161;53.020;6.598;2022-09-27T09:20:03;2.85;;;0.70;;
52186;SDS011;38161;53.020;6.598;2022-09-27T09:25:30;1.02;;;0.45;;
52186;SDS011;38161;53.020;6.598;2022-09-27T09:33:13;1.48;;;0.40;;
52186;SDS011;38161;53.020;6.598;2022-09-27T09:43:41;3.28;;;0.50;;
52186;SDS011;38161;53.020;6.598;2022-09-27T09:46:20;3.72;;;0.63;;
52186;SDS011;38161;53.020;6.598;2022-09-27T09:48:54;6.18;;;1.15;;
52186;SDS011;38161;53.020;6.598;2022-09-27T09:51:48;4.78;;;1.50;;
52186;SDS011;38161;53.020;6.598;2022-09-27T09:54:18;5.25;;;1.73;;
52186;SDS011;38161;53.020;6.598;2022-09-27T09:59:36;5.10;;;1.20;;
52186;SDS011;38161;53.020;6.598;2022-09-27T10:04:49;4.25;;;0.85;;
52186;SDS011;38161;53.020;6.598;2022-09-27T10:07:15;4.23;;;0.73;;
52186;SDS011;38161;53.020;6.598;2022-09-27T10:09:47;2.33;;;0.65;;
52186;SDS011;38161;53.020;6.598;2022-09-27T10:12:13;2.30;;;0.40;;
52186;SDS011;38161;53.020;6.598;2022-09-27T10:14:39;2.38;;;0.20;;
52186;SDS011;38161;53.020;6.598;2022-09-27T10:17:09;1.17;;;0.20;;
52186;SDS011;38161;53.020;6.598;2022-09-27T10:19:38;4.93;;;0.52;;
52186;SDS011;38161;53.020;6.598;2022-09-27T10:22:27;0.88;;;0.32;;
52186;SDS011;38161;53.020;6.598;2022-09-27T10:25:02;0.77;;;0.30;;
52186;SDS011;38161;53.020;6.598;2022-09-27T10:27:41;0.30;;;0.17;;
52186;SDS011;38161;53.020;6.598;2022-09-27T10:32:51;1.63;;;0.40;;
52186;SDS011;38161;53.020;6.598;2022-09-27T10:35:30;3.38;;;0.30;;
52186;SDS011;38161;53.020;6.598;2022-09-27T10:40:49;2.05;;;0.30;;
52186;SDS011;38161;53.020;6.598;2022-09-27T10:43:24;1.30;;;0.45;;
52186;SDS011;38161;53.020;6.598;2022-09-27T10:48:34;0.43;;;0.32;;
52186;SDS011;38161;53.020;6.598;2022-09-27T10:51:02;1.25;;;0.30;;
52186;SDS011;38161;53.020;6.598;2022-09-27T10:53:30;1.65;;;0.50;;
52186;SDS011;38161;53.020;6.598;2022-09-27T10:55:57;2.50;;;0.52;;
52186;SDS011;38161;53.020;6.598;2022-09-27T10:58:25;1.65;;;0.50;;
52186;SDS011;38161;53.020;6.598;2022-09-27T11:00:57;1.83;;;0.30;;
52186;SDS011;38161;53.020;6.598;2022-09-27T11:03:28;1.00;;;0.40;;
52186;SDS011;38161;53.020;6.598;2022-09-27T11:05:56;3.03;;;0.50;;
52186;SDS011;38161;53.020;6.598;2022-09-27T11:21:52;1.45;;;0.28;;
52186;SDS011;38161;53.020;6.598;2022-09-27T11:30:53;1.50;;;0.20;;
52186;SDS011;38161;53.020;6.598;2022-09-27T11:47:40;0.50;;;0.20;;
52186;SDS011;38161;53.020;6.598;2022-09-27T12:01:28;1.52;;;0.20;;
52186;SDS011;38161;53.020;6.598;2022-09-27T12:09:38;1.08;;;0.30;;
52186;SDS011;38161;53.020;6.598;2022-09-27T12:12:17;1.38;;;0.30;;
52186;SDS011;38161;53.020;6.598;2022-09-27T12:14:48;0.55;;;0.20;;
52186;SDS011;38161;53.020;6.598;2022-09-27T12:17:32;1.58;;;0.25;;
52186;SDS011;38161;53.020;6.598;2022-09-27T12:20:05;1.38;;;0.20;;
52186;SDS011;38161;53.020;6.598;2022-09-27T12:22:49;4.30;;;0.30;;
52186;SDS011;38161;53.020;6.598;2022-09-27T12:25:21;1.00;;;0.30;;
52186;SDS011;38161;53.020;6.598;2022-09-27T12:30:47;2.03;;;0.35;;
52186;SDS011;38161;53.020;6.598;2022-09-27T12:33:25;0.77;;;0.30;;
52186;SDS011;38161;53.020;6.598;2022-09-27T12:35:58;2.42;;;0.70;;
52186;SDS011;38161;53.020;6.598;2022-09-27T12:38:36;1.83;;;0.40;;
52186;SDS011;38161;53.020;6.598;2022-09-27T12:41:08;3.72;;;0.50;;
52186;SDS011;38161;53.020;6.598;2022-09-27T12:43:39;1.63;;;0.38;;
52186;SDS011;38161;53.020;6.598;2022-09-27T12:46:18;3.20;;;0.70;;
52186;SDS011;38161;53.020;6.598;2022-09-27T12:51:45;3.70;;;0.80;;
52186;SDS011;38161;53.020;6.598;2022-09-27T13:00:26;3.42;;;0.77;;
52186;SDS011;38161;53.020;6.598;2022-09-27T13:13:55;1.10;;;0.43;;
52186;SDS011;38161;53.020;6.598;2022-09-27T13:16:22;1.73;;;0.40;;
52186;SDS011;38161;53.020;6.598;2022-09-27T13:24:55;6.22;;;2.28;;
52186;SDS011;38161;53.020;6.598;2022-09-27T13:27:23;3.42;;;1.35;;
52186;SDS011;38161;53.020;6.598;2022-09-27T13:32:32;2.85;;;0.98;;
52186;SDS011;38161;53.020;6.598;2022-09-27T13:35:16;3.80;;;1.45;;
52186;SDS011;38161;53.020;6.598;2022-09-27T13:45:41;4.22;;;0.60;;
52186;SDS011;38161;53.020;6.598;2022-09-27T13:48:26;2.88;;;0.50;;
52186;SDS011;38161;53.020;6.598;2022-09-27T13:51:15;2.00;;;0.77;;
52186;SDS011;38161;53.020;6.598;2022-09-27T13:53:54;0.85;;;0.30;;
52186;SDS011;38161;53.020;6.598;2022-09-27T13:59:16;1.98;;;0.30;;
52186;SDS011;38161;53.020;6.598;2022-09-27T14:02:18;0.68;;;0.30;;
52186;SDS011;38161;53.020;6.598;2022-09-27T14:04:56;1.92;;;0.28;;
52186;SDS011;38161;53.020;6.598;2022-09-27T14:07:26;0.82;;;0.30;;
52186;SDS011;38161;53.020;6.598;2022-09-27T14:10:00;0.30;;;0.30;;
52186;SDS011;38161;53.020;6.598;2022-09-27T14:12:33;1.10;;;0.35;;
52186;SDS011;38161;53.020;6.598;2022-09-27T14:15:01;0.43;;;0.28;;
52186;SDS011;38161;53.020;6.598;2022-09-27T14:17:28;2.05;;;0.38;;
52186;SDS011;38161;53.020;6.598;2022-09-27T14:22:22;1.58;;;0.35;;
52186;SDS011;38161;53.020;6.598;2022-09-27T14:24:49;2.28;;;0.60;;
52186;SDS011;38161;53.020;6.598;2022-09-27T14:27:26;1.85;;;0.80;;
52186;SDS011;38161;53.020;6.598;2022-09-27T14:29:54;2.58;;;0.85;;
52186;SDS011;38161;53.020;6.598;2022-09-27T14:32:23;1.42;;;0.70;;
52186;SDS011;38161;53.020;6.598;2022-09-27T14:37:28;1.40;;;0.68;;
52186;SDS011;38161;53.020;6.598;2022-09-27T14:42:23;3.08;;;0.73;;
52186;SDS011;38161;53.020;6.598;2022-09-27T14:45:00;3.05;;;1.00;;
52186;SDS011;38161;53.020;6.598;2022-09-27T14:47:31;2.33;;;0.85;;
52186;SDS011;38161;53.020;6.598;2022-09-27T14:49:58;2.42;;;0.77;;
52186;SDS011;38161;53.020;6.598;2022-09-27T14:52:27;2.20;;;0.73;;
52186;SDS011;38161;53.020;6.598;2022-09-27T14:55:01;2.92;;;1.33;;
52186;SDS011;38161;53.020;6.598;2022-09-27T14:57:28;2.72;;;0.90;;
52186;SDS011;38161;53.020;6.598;2022-09-27T14:59:58;1.83;;;0.77;;
52186;SDS011;38161;53.020;6.598;2022-09-27T15:02:28;3.05;;;0.70;;
52186;SDS011;38161;53.020;6.598;2022-09-27T15:04:54;2.03;;;0.60;;
52186;SDS011;38161;53.020;6.598;2022-09-27T15:07:20;2.70;;;0.70;;
52186;SDS011;38161;53.020;6.598;2022-09-27T15:12:15;2.63;;;0.70;;
52186;SDS011;38161;53.020;6.598;2022-09-27T15:14:48;1.90;;;0.90;;
52186;SDS011;38161;53.020;6.598;2022-09-27T15:17:19;0.68;;;0.50;;
52186;SDS011;38161;53.020;6.598;2022-09-27T15:19:58;3.22;;;0.70;;
52186;SDS011;38161;53.020;6.598;2022-09-27T15:22:31;1.40;;;0.70;;
52186;SDS011;38161;53.020;6.598;2022-09-27T15:25:03;3.55;;;0.80;;
52186;SDS011;38161;53.020;6.598;2022-09-27T15:27:31;4.03;;;0.73;;
52186;SDS011;38161;53.020;6.598;2022-09-27T15:29:57;4.03;;;0.97;;
52186;SDS011;38161;53.020;6.598;2022-09-27T15:32:24;2.90;;;0.77;;
52186;SDS011;38161;53.020;6.598;2022-09-27T15:34:51;2.13;;;0.75;;
52186;SDS011;38161;53.020;6.598;2022-09-27T15:37:34;2.05;;;0.80;;
52186;SDS011;38161;53.020;6.598;2022-09-27T15:45:29;2.08;;;0.63;;
52186;SDS011;38161;53.020;6.598;2022-09-27T15:50:31;2.50;;;0.68;;
52186;SDS011;38161;53.020;6.598;2022-09-27T15:52:58;2.90;;;0.98;;
52186;SDS011;38161;53.020;6.598;2022-09-27T15:55:27;2.03;;;0.77;;
52186;SDS011;38161;53.020;6.598;2022-09-27T15:57:55;3.78;;;0.88;;
52186;SDS011;38161;53.020;6.598;2022-09-27T16:00:26;3.75;;;1.27;;
52186;SDS011;38161;53.020;6.598;2022-09-27T16:02:53;3.80;;;0.90;;
52186;SDS011;38161;53.020;6.598;2022-09-27T16:05:19;3.28;;;0.95;;
52186;SDS011;38161;53.020;6.598;2022-09-27T16:07:46;4.10;;;0.90;;
52186;SDS011;38161;53.020;6.598;2022-09-27T16:10:16;3.77;;;0.97;;
52186;SDS011;38161;53.020;6.598;2022-09-27T16:12:51;2.60;;;1.08;;
52186;SDS011;38161;53.020;6.598;2022-09-27T16:15:16;1.67;;;0.70;;
52186;SDS011;38161;53.020;6.598;2022-09-27T16:17:42;2.13;;;0.87;;
52186;SDS011;38161;53.020;6.598;2022-09-27T16:20:18;3.33;;;1.10;;
52186;SDS011;38161;53.020;6.598;2022-09-27T16:22:49;3.20;;;0.85;;
52186;SDS011;38161;53.020;6.598;2022-09-27T16:25:16;2.60;;;1.10;;
52186;SDS011;38161;53.020;6.598;2022-09-27T16:27:42;4.25;;;1.15;;
52186;SDS011;38161;53.020;6.598;2022-09-27T16:30:08;2.93;;;1.00;;
52186;SDS011;38161;53.020;6.598;2022-09-27T16:32:38;3.03;;;1.20;;
52186;SDS011;38161;53.020;6.598;2022-09-27T16:35:09;3.13;;;1.10;;
52186;SDS011;38161;53.020;6.598;2022-09-27T16:37:36;3.35;;;0.90;;
52186;SDS011;38161;53.020;6.598;2022-09-27T16:40:02;3.50;;;1.35;;
52186;SDS011;38161;53.020;6.598;2022-09-27T16:42:29;2.70;;;1.00;;
52186;SDS011;38161;53.020;6.598;2022-09-27T16:44:55;3.07;;;1.33;;
52186;SDS011;38161;53.020;6.598;2022-09-27T16:47:20;4.10;;;1.13;;
52186;SDS011;38161;53.020;6.598;2022-09-27T16:49:46;2.97;;;1.23;;
52186;SDS011;38161;53.020;6.598;2022-09-27T16:52:31;4.55;;;1.67;;
52186;SDS011;38161;53.020;6.598;2022-09-27T16:54:57;2.50;;;0.85;;
52186;SDS011;38161;53.020;6.598;2022-09-27T16:57:23;4.18;;;0.85;;
52186;SDS011;38161;53.020;6.598;2022-09-27T16:59:52;2.45;;;0.80;;
52186;SDS011;38161;53.020;6.598;2022-09-27T17:02:20;2.22;;;0.65;;
52186;SDS011;38161;53.020;6.598;2022-09-27T17:04:47;2.83;;;0.93;;
52186;SDS011;38161;53.020;6.598;2022-09-27T17:07:13;5.03;;;1.00;;
52186;SDS011;38161;53.020;6.598;2022-09-27T17:09:39;2.97;;;0.90;;
52186;SDS011;38161;53.020;6.598;2022-09-27T17:12:05;2.70;;;0.90;;
52186;SDS011;38161;53.020;6.598;2022-09-27T17:14:31;2.75;;;1.10;;
52186;SDS011;38161;53.020;6.598;2022-09-27T17:16:56;2.97;;;1.43;;
52186;SDS011;38161;53.020;6.598;2022-09-27T17:19:22;3.78;;;1.83;;
52186;SDS011;38161;53.020;6.598;2022-09-27T17:21:48;5.20;;;1.20;;
52186;SDS011;38161;53.020;6.598;2022-09-27T17:24:15;2.40;;;1.27;;
52186;SDS011;38161;53.020;6.598;2022-09-27T17:26:41;4.10;;;1.50;;
52186;SDS011;38161;53.020;6.598;2022-09-27T17:29:11;2.47;;;1.10;;
52186;SDS011;38161;53.020;6.598;2022-09-27T17:31:37;4.25;;;1.17;;
52186;SDS011;38161;53.020;6.598;2022-09-27T17:34:04;2.88;;;1.00;;
52186;SDS011;38161;53.020;6.598;2022-09-27T17:36:31;4.35;;;1.10;;
52186;SDS011;38161;53.020;6.598;2022-09-27T17:38:58;3.20;;;1.08;;
52186;SDS011;38161;53.020;6.598;2022-09-27T17:41:25;3.05;;;1.00;;
52186;SDS011;38161;53.020;6.598;2022-09-27T17:43:55;3.20;;;1.38;;
52186;SDS011;38161;53.020;6.598;2022-09-27T17:46:27;2.45;;;1.30;;
52186;SDS011;38161;53.020;6.598;2022-09-27T17:48:54;3.42;;;1.20;;
52186;SDS011;38161;53.020;6.598;2022-09-27T17:51:39;2.95;;;1.48;;
52186;SDS011;38161;53.020;6.598;2022-09-27T17:54:07;3.55;;;1.40;;
52186;SDS011;38161;53.020;6.598;2022-09-27T17:56:35;4.22;;;1.58;;
52186;SDS011;38161;53.020;6.598;2022-09-27T17:59:02;4.28;;;1.55;;
52186;SDS011;38161;53.020;6.598;2022-09-27T18:01:28;2.63;;;1.15;;
52186;SDS011;38161;53.020;6.598;2022-09-27T18:03:54;3.22;;;1.33;;
52186;SDS011;38161;53.020;6.598;2022-09-27T18:06:22;3.17;;;1.30;;
52186;SDS011;38161;53.020;6.598;2022-09-27T18:08:48;4.15;;;1.25;;
52186;SDS011;38161;53.020;6.598;2022-09-27T18:13:41;5.25;;;1.55;;
52186;SDS011;38161;53.020;6.598;2022-09-27T18:16:12;3.72;;;1.70;;
52186;SDS011;38161;53.020;6.598;2022-09-27T18:18:41;2.60;;;1.40;;
52186;SDS011;38161;53.020;6.598;2022-09-27T18:21:09;4.43;;;1.70;;
52186;SDS011;38161;53.020;6.598;2022-09-27T18:23:38;4.55;;;1.80;;
52186;SDS011;38161;53.020;6.598;2022-09-27T18:28:40;3.67;;;2.00;;
52186;SDS011;38161;53.020;6.598;2022-09-27T18:31:10;5.72;;;2.33;;
52186;SDS011;38161;53.020;6.598;2022-09-27T18:33:38;3.95;;;2.10;;
52186;SDS011;38161;53.020;6.598;2022-09-27T18:36:14;3.03;;;1.80;;
52186;SDS011;38161;53.020;6.598;2022-09-27T18:38:45;5.05;;;2.42;;